createdAt,value
2023-05-10T00:01:08.950Z,100843.00
2023-05-10T00:03:35.844Z,100839.00
2023-05-10T00:06:03.025Z,100845.00
2023-05-10T00:08:29.889Z,100833.00
2023-05-10T00:10:56.706Z,100843.00
2023-05-10T00:13:23.822Z,100837.00
2023-05-10T00:15:51.525Z,100844.00
2023-05-10T00:18:18.365Z,100838.00
2023-05-10T00:20:49.672Z,100836.00
2023-05-10T00:23:16.744Z,100837.00
2023-05-10T00:25:43.617Z,100831.00
2023-05-10T00:28:10.475Z,100837.00
2023-05-10T00:30:37.282Z,100832.00
2023-05-10T00:33:04.342Z,100831.00
2023-05-10T00:35:31.620Z,100837.00
2023-05-10T00:37:58.493Z,100825.00
2023-05-10T00:40:25.629Z,100823.00
2023-05-10T00:42:52.535Z,100820.00
2023-05-10T00:45:20.270Z,100823.00
2023-05-10T00:47:47.628Z,100816.00
2023-05-10T00:50:16.386Z,100816.00
2023-05-10T00:52:44.531Z,100810.00
2023-05-10T00:55:13.317Z,100817.00
2023-05-10T00:57:40.713Z,100811.00
2023-05-10T01:00:08.803Z,100809.00
2023-05-10T01:02:36.258Z,100811.00
2023-05-10T01:05:04.756Z,100813.00
2023-05-10T01:07:31.658Z,100806.00
2023-05-10T01:09:59.065Z,100802.00
2023-05-10T01:12:26.292Z,100806.00
2023-05-10T01:14:55.412Z,100802.00
2023-05-10T01:17:23.670Z,100796.00
2023-05-10T01:19:50.931Z,100803.00
2023-05-10T01:22:42.998Z,100800.00
2023-05-10T01:25:15.835Z,100800.00
2023-05-10T01:28:07.452Z,100801.00
2023-05-10T01:31:25.596Z,100794.00
2023-05-10T01:34:18.233Z,100796.00
2023-05-10T01:36:54.073Z,100791.00
2023-05-10T01:40:09.181Z,100792.00
2023-05-10T01:42:50.056Z,100798.00
2023-05-10T01:45:32.783Z,100792.00
2023-05-10T01:48:12.589Z,100782.00
2023-05-10T01:50:44.890Z,100789.00
2023-05-10T01:53:14.696Z,100795.00
2023-05-10T01:55:49.517Z,100789.00
2023-05-10T01:58:29.167Z,100793.00
2023-05-10T02:00:59.211Z,100801.00
2023-05-10T02:03:29.117Z,100660.00
2023-05-10T02:05:58.345Z,100782.00
2023-05-10T02:08:26.585Z,100787.00
2023-05-10T02:10:57.183Z,100784.00
2023-05-10T02:13:27.138Z,100777.00
2023-05-10T02:15:56.615Z,100779.00
2023-05-10T02:18:26.711Z,100781.00
2023-05-10T02:20:55.990Z,100775.00
2023-05-10T02:23:24.641Z,100757.00
2023-05-10T02:25:54.994Z,100770.00
2023-05-10T02:28:25.968Z,100783.00
2023-05-10T02:30:54.833Z,100770.00
2023-05-10T02:33:23.439Z,100769.00
2023-05-10T02:35:52.105Z,100734.00
2023-05-10T02:38:22.560Z,100765.00
2023-05-10T02:40:50.142Z,100770.00
2023-05-10T02:43:19.870Z,100761.00
2023-05-10T02:45:49.167Z,100769.00
2023-05-10T02:48:17.410Z,100765.00
2023-05-10T02:50:47.692Z,100762.00
2023-05-10T02:53:23.573Z,100758.00
2023-05-10T02:55:58.537Z,100771.00
2023-05-10T02:58:26.305Z,100764.00
2023-05-10T03:00:56.108Z,100767.00
2023-05-10T03:03:23.041Z,100768.00
2023-05-10T03:05:49.968Z,100769.00
2023-05-10T03:08:17.205Z,100772.00
2023-05-10T03:11:21.852Z,100776.00
2023-05-10T03:14:22.705Z,100762.00
2023-05-10T03:17:08.162Z,100777.00
2023-05-10T03:19:52.069Z,100742.00
2023-05-10T03:22:41.756Z,100750.00
2023-05-10T03:25:11.978Z,100765.00
2023-05-10T03:27:43.687Z,100767.00
2023-05-10T03:30:14.042Z,100770.00
2023-05-10T03:32:41.044Z,100766.00
2023-05-10T03:35:09.988Z,100777.00
2023-05-10T03:37:37.145Z,100770.00
2023-05-10T03:40:04.994Z,100765.00
2023-05-10T03:42:32.102Z,100774.00
2023-05-10T03:44:58.959Z,100775.00
2023-05-10T03:47:26.086Z,100783.00
2023-05-10T03:49:53.236Z,100773.00
2023-05-10T03:52:20.095Z,100773.00
2023-05-10T03:54:47.058Z,100768.00
2023-05-10T03:57:13.882Z,100769.00
2023-05-10T03:59:40.696Z,100767.00
2023-05-10T04:02:07.772Z,100767.00
2023-05-10T04:04:34.616Z,100767.00
2023-05-10T04:07:01.494Z,100773.00
2023-05-10T04:09:28.292Z,100767.00
2023-05-10T04:11:55.083Z,100768.00
2023-05-10T04:14:21.945Z,100763.00
2023-05-10T04:16:48.775Z,100768.00
2023-05-10T04:19:15.634Z,100763.00
2023-05-10T04:21:42.506Z,100771.00
2023-05-10T04:24:09.338Z,100765.00
2023-05-10T04:26:36.205Z,100762.00
2023-05-10T04:29:03.465Z,100762.00
2023-05-10T04:31:30.444Z,100761.00
2023-05-10T04:33:57.364Z,100759.00
2023-05-10T04:36:24.255Z,100756.00
2023-05-10T04:38:51.074Z,100767.00
2023-05-10T04:41:17.886Z,100764.00
2023-05-10T04:43:44.755Z,100761.00
2023-05-10T04:46:11.635Z,100768.00
2023-05-10T04:48:38.534Z,100780.00
2023-05-10T04:51:05.814Z,100772.00
2023-05-10T04:53:33.062Z,100770.00
2023-05-10T04:56:00.466Z,100754.00
2023-05-10T04:58:27.437Z,100781.00
2023-05-10T05:00:54.271Z,100776.00
2023-05-10T05:03:21.188Z,100773.00
2023-05-10T05:05:48.063Z,100783.00
2023-05-10T05:08:15.262Z,100773.00
2023-05-10T05:10:42.074Z,100772.00
2023-05-10T05:13:08.992Z,100768.00
2023-05-10T05:15:35.971Z,100767.00
2023-05-10T05:18:02.877Z,100771.00
2023-05-10T05:20:33.314Z,100773.00
2023-05-10T05:23:00.216Z,100769.00
2023-05-10T05:25:27.076Z,100773.00
2023-05-10T05:27:54.581Z,100763.00
2023-05-10T05:30:21.469Z,100771.00
2023-05-10T05:32:48.329Z,100782.00
2023-05-10T05:35:15.793Z,100775.00
2023-05-10T05:37:42.864Z,100766.00
2023-05-10T05:40:13.884Z,100774.00
2023-05-10T05:42:40.842Z,100773.00
2023-05-10T05:45:09.696Z,100764.00
2023-05-10T05:47:36.631Z,100760.00
2023-05-10T05:50:03.656Z,100765.00
2023-05-10T05:52:31.640Z,100750.00
2023-05-10T05:54:58.494Z,100771.00
2023-05-10T05:57:25.493Z,100766.00
2023-05-10T05:59:52.354Z,100780.00
2023-05-10T06:02:19.202Z,100772.00
2023-05-10T06:04:46.146Z,100768.00
2023-05-10T06:07:13.022Z,100763.00
2023-05-10T06:09:39.844Z,100768.00
2023-05-10T06:12:06.759Z,100778.00
2023-05-10T06:14:33.626Z,100765.00
2023-05-10T06:17:01.109Z,100766.00
2023-05-10T06:19:28.249Z,100768.00
2023-05-10T06:21:55.201Z,100765.00
2023-05-10T06:24:22.757Z,100767.00
2023-05-10T06:26:50.959Z,100765.00
2023-05-10T06:29:17.816Z,100762.00
2023-05-10T06:31:44.744Z,100763.00
2023-05-10T06:34:12.692Z,100766.00
2023-05-10T06:36:39.635Z,100762.00
2023-05-10T06:39:06.656Z,100764.00
2023-05-10T06:41:33.540Z,100767.00
2023-05-10T06:44:00.337Z,100759.00
2023-05-10T06:46:27.277Z,100763.00
2023-05-10T06:48:54.138Z,100759.00
2023-05-10T06:51:22.185Z,100765.00
2023-05-10T06:53:49.026Z,100759.00
2023-05-10T06:56:15.864Z,100758.00
2023-05-10T06:58:42.694Z,100762.00
2023-05-10T07:01:09.916Z,100758.00
2023-05-10T07:03:36.920Z,100747.00
2023-05-10T07:06:04.856Z,100741.00
2023-05-10T07:08:35.599Z,100755.00
2023-05-10T07:11:11.396Z,100749.00
2023-05-10T07:13:40.072Z,100754.00
2023-05-10T07:16:07.588Z,100755.00
2023-05-10T07:18:35.001Z,100760.00
2023-05-10T07:21:01.950Z,100758.00
2023-05-10T07:23:28.907Z,100756.00
2023-05-10T07:25:55.842Z,100753.00
2023-05-10T07:28:23.252Z,100751.00
2023-05-10T07:30:50.123Z,100752.00
2023-05-10T07:33:17.366Z,100755.00
2023-05-10T07:35:44.528Z,100757.00
2023-05-10T07:38:14.362Z,100754.00
2023-05-10T07:40:41.245Z,100761.00
2023-05-10T07:43:08.095Z,100749.00
2023-05-10T07:45:35.412Z,100744.00
2023-05-10T07:48:02.655Z,100766.00
2023-05-10T07:50:29.727Z,100758.00
2023-05-10T07:52:56.605Z,100753.00
2023-05-10T07:55:23.531Z,100757.00
2023-05-10T07:57:50.442Z,100752.00
2023-05-10T08:00:21.882Z,100751.00
2023-05-10T08:02:49.018Z,100759.00
2023-05-10T08:05:16.383Z,100750.00
2023-05-10T08:07:43.578Z,100753.00
2023-05-10T08:10:12.271Z,100754.00
2023-05-10T08:12:39.701Z,100733.00
2023-05-10T08:15:08.053Z,100755.00
2023-05-10T08:17:35.258Z,100745.00
2023-05-10T08:20:02.403Z,100749.00
2023-05-10T08:22:29.261Z,100745.00
2023-05-10T08:24:56.083Z,100745.00
2023-05-10T08:27:22.970Z,100730.00
2023-05-10T08:29:50.633Z,100752.00
2023-05-10T08:32:18.482Z,100734.00
2023-05-10T08:34:45.402Z,100743.00
2023-05-10T08:37:14.235Z,100744.00
2023-05-10T08:39:41.633Z,100714.00
2023-05-10T08:42:10.330Z,100724.00
2023-05-10T08:44:38.073Z,100739.00
2023-05-10T08:47:08.480Z,100742.00
2023-05-10T08:49:36.118Z,100744.00
2023-05-10T08:52:07.975Z,100744.00
2023-05-10T08:54:35.258Z,100739.00
2023-05-10T08:57:02.587Z,100734.00
2023-05-10T08:59:30.083Z,100735.00
2023-05-10T09:02:01.486Z,100726.00
2023-05-10T09:04:30.848Z,100729.00
2023-05-10T09:06:58.368Z,100729.00
2023-05-10T09:09:26.674Z,100720.00
2023-05-10T09:11:54.824Z,100735.00
2023-05-10T09:14:24.201Z,100738.00
2023-05-10T09:16:51.352Z,100734.00
2023-05-10T09:19:18.225Z,100733.00
2023-05-10T09:21:45.074Z,100724.00
2023-05-10T09:24:13.047Z,100727.00
2023-05-10T09:26:49.328Z,100724.00
2023-05-10T09:29:17.749Z,100720.00
2023-05-10T09:31:55.796Z,100721.00
2023-05-10T09:34:33.075Z,100724.00
2023-05-10T09:37:03.712Z,100729.00
2023-05-10T09:39:35.507Z,100729.00
2023-05-10T09:42:10.810Z,100723.00
2023-05-10T09:44:39.114Z,100707.00
2023-05-10T09:47:06.532Z,100723.00
2023-05-10T09:49:34.240Z,100719.00
2023-05-10T09:52:07.104Z,100714.00
2023-05-10T09:54:35.366Z,100704.00
2023-05-10T09:57:02.307Z,100712.00
2023-05-10T09:59:30.161Z,100721.00
2023-05-10T10:02:01.618Z,100715.00
2023-05-10T10:04:29.204Z,100705.00
2023-05-10T10:07:05.306Z,100698.00
2023-05-10T10:09:34.379Z,100702.00
2023-05-10T10:12:03.510Z,100700.00
2023-05-10T10:14:31.060Z,100679.00
2023-05-10T10:17:07.559Z,100685.00
2023-05-10T10:19:38.781Z,100692.00
2023-05-10T10:22:07.044Z,100696.00
2023-05-10T10:24:34.488Z,100704.00
2023-05-10T10:27:25.305Z,100690.00
2023-05-10T10:30:14.946Z,100688.00
2023-05-10T10:33:31.015Z,100681.00
2023-05-10T10:36:01.605Z,100682.00
2023-05-10T10:38:49.495Z,100690.00
2023-05-10T10:41:44.926Z,100675.00
2023-05-10T10:44:26.795Z,100682.00
2023-05-10T10:47:06.686Z,100664.00
2023-05-10T10:49:38.731Z,100669.00
2023-05-10T10:52:42.419Z,100666.00
2023-05-10T10:55:24.238Z,100672.00
2023-05-10T10:58:03.651Z,100674.00
2023-05-10T11:00:37.052Z,100655.00
2023-05-10T11:03:12.843Z,100656.00
2023-05-10T11:05:44.467Z,100655.00
2023-05-10T11:08:32.630Z,100656.00
2023-05-10T11:11:04.332Z,100671.00
2023-05-10T11:13:49.233Z,100648.00
2023-05-10T11:16:27.993Z,100668.00
2023-05-10T11:19:11.335Z,100662.00
2023-05-10T11:22:16.267Z,100662.00
2023-05-10T11:24:59.203Z,100649.00
2023-05-10T11:27:26.328Z,100659.00
2023-05-10T11:29:55.328Z,100652.00
2023-05-10T11:32:23.253Z,100655.00
2023-05-10T11:34:50.067Z,100653.00
2023-05-10T11:37:19.375Z,100655.00
2023-05-10T11:39:48.609Z,100660.00
2023-05-10T11:42:15.524Z,100661.00
2023-05-10T11:44:42.965Z,100662.00
2023-05-10T11:47:10.226Z,100661.00
2023-05-10T11:49:37.186Z,100663.00
2023-05-10T11:52:09.079Z,100668.00
2023-05-10T11:54:36.237Z,100668.00
2023-05-10T11:57:03.990Z,100658.00
2023-05-10T11:59:30.909Z,100662.00
2023-05-10T12:01:58.089Z,100661.00
2023-05-10T12:04:25.764Z,100661.00
2023-05-10T12:06:52.752Z,100646.00
2023-05-10T12:09:31.403Z,100663.00
2023-05-10T12:12:03.772Z,100654.00
2023-05-10T12:14:36.097Z,100649.00
2023-05-10T12:17:02.987Z,100645.00
2023-05-10T12:19:38.602Z,100661.00
2023-05-10T12:22:08.540Z,100655.00
2023-05-10T12:24:41.723Z,100651.00
2023-05-10T12:27:13.288Z,100646.00
2023-05-10T12:29:45.472Z,100640.00
2023-05-10T12:32:12.604Z,100649.00
2023-05-10T12:34:39.828Z,100658.00
2023-05-10T12:37:07.131Z,100639.00
2023-05-10T12:39:42.242Z,100648.00
2023-05-10T12:42:10.787Z,100644.00
2023-05-10T12:44:37.799Z,100649.00
2023-05-10T12:47:04.734Z,100647.00
2023-05-10T12:49:33.076Z,100649.00
2023-05-10T12:51:59.913Z,100652.00
2023-05-10T12:54:26.776Z,100649.00
2023-05-10T12:56:53.675Z,100648.00
2023-05-10T12:59:20.558Z,100651.00
2023-05-10T13:01:47.588Z,100638.00
2023-05-10T13:04:14.605Z,100642.00
2023-05-10T13:06:41.497Z,100643.00
2023-05-10T13:09:08.718Z,100646.00
2023-05-10T13:11:35.709Z,100637.00
2023-05-10T13:14:04.218Z,100634.00
2023-05-10T13:16:31.268Z,100635.00
2023-05-10T13:18:58.441Z,100635.00
2023-05-10T13:21:26.154Z,100630.00
2023-05-10T13:23:54.052Z,100638.00
2023-05-10T13:26:21.290Z,100640.00
2023-05-10T13:28:49.736Z,100632.00
2023-05-10T13:31:16.768Z,100636.00
2023-05-10T13:33:43.764Z,100630.00
2023-05-10T13:36:10.664Z,100634.00
2023-05-10T13:38:41.271Z,100629.00
2023-05-10T13:41:08.305Z,100610.00
2023-05-10T13:43:35.350Z,100627.00
2023-05-10T13:46:03.685Z,100623.00
2023-05-10T13:48:30.581Z,100620.00
2023-05-10T13:50:57.572Z,100629.00
2023-05-10T13:53:24.774Z,100631.00
2023-05-10T13:56:43.632Z,100622.00
2023-05-10T13:59:10.691Z,100551.00
2023-05-10T14:01:37.958Z,100619.00
2023-05-10T14:04:05.120Z,100611.00
2023-05-10T14:06:32.501Z,100608.00
2023-05-10T14:08:59.528Z,100611.00
2023-05-10T14:11:26.670Z,100610.00
2023-05-10T14:13:53.663Z,100606.00
2023-05-10T14:16:21.284Z,100600.00
2023-05-10T14:18:48.371Z,100586.00
2023-05-10T14:21:15.269Z,100603.00
2023-05-10T14:23:42.449Z,100605.00
2023-05-10T14:26:09.623Z,100592.00
2023-05-10T14:28:36.780Z,100582.00
2023-05-10T14:31:03.701Z,100590.00
2023-05-10T14:33:30.540Z,100600.00
2023-05-10T14:35:58.243Z,100595.00
2023-05-10T14:38:25.122Z,100588.00
2023-05-10T14:40:52.044Z,100591.00
2023-05-10T14:43:18.955Z,100598.00
2023-05-10T14:45:45.890Z,100597.00
2023-05-10T14:48:18.236Z,100597.00
2023-05-10T14:50:47.029Z,100598.00
2023-05-10T14:53:37.968Z,100591.00
2023-05-10T14:56:05.193Z,100595.00
2023-05-10T14:58:34.006Z,100595.00
2023-05-10T15:01:01.915Z,100586.00
2023-05-10T15:03:29.966Z,100582.00
2023-05-10T15:05:58.893Z,100583.00
2023-05-10T15:08:26.331Z,100592.00
2023-05-10T15:10:53.910Z,100582.00
2023-05-10T15:13:21.030Z,100578.00
2023-05-10T15:15:48.119Z,100581.00
2023-05-10T15:18:15.005Z,100580.00
2023-05-10T15:20:42.160Z,100586.00
2023-05-10T15:23:09.120Z,100579.00
2023-05-10T15:25:38.092Z,100582.00
2023-05-10T15:28:05.702Z,100576.00
2023-05-10T15:30:32.688Z,100575.00
2023-05-10T15:33:00.204Z,100586.00
2023-05-10T15:35:28.004Z,100579.00
2023-05-10T15:37:54.910Z,100575.00
2023-05-10T15:40:21.851Z,100577.00
2023-05-10T15:42:48.720Z,100576.00
2023-05-10T15:45:16.588Z,100581.00
2023-05-10T15:47:45.041Z,100591.00
2023-05-10T15:50:12.835Z,100577.00
2023-05-10T15:52:39.797Z,100587.00
2023-05-10T15:55:12.975Z,100581.00
2023-05-10T15:57:42.614Z,100575.00
2023-05-10T16:00:12.635Z,100576.00
2023-05-10T16:02:42.835Z,100578.00
2023-05-10T16:05:10.195Z,100572.00
2023-05-10T16:07:37.139Z,100581.00
2023-05-10T16:10:06.491Z,100580.00
2023-05-10T16:12:33.700Z,100590.00
2023-05-10T16:15:00.651Z,100589.00
2023-05-10T16:17:27.704Z,100586.00
2023-05-10T16:19:54.689Z,100586.00
2023-05-10T16:22:22.413Z,100592.00
2023-05-10T16:24:53.539Z,100574.00
2023-05-10T16:27:20.711Z,100588.00
2023-05-10T16:29:48.362Z,100596.00
2023-05-10T16:32:15.358Z,100601.00
2023-05-10T16:34:42.312Z,100594.00
2023-05-10T16:37:09.841Z,100599.00
2023-05-10T16:39:37.244Z,100596.00
2023-05-10T16:42:04.460Z,100610.00
2023-05-10T16:44:31.400Z,100605.00
2023-05-10T16:46:58.376Z,100610.00
2023-05-10T16:49:26.573Z,100599.00
2023-05-10T16:51:53.668Z,100600.00
2023-05-10T16:54:22.102Z,100578.00
2023-05-10T16:56:49.141Z,100605.00
2023-05-10T16:59:16.529Z,100604.00
2023-05-10T17:01:43.803Z,100606.00
2023-05-10T17:04:10.899Z,100609.00
2023-05-10T17:06:38.081Z,100620.00
2023-05-10T17:09:05.828Z,100614.00
2023-05-10T17:11:33.291Z,100611.00
2023-05-10T17:14:01.856Z,100616.00
2023-05-10T17:16:30.370Z,100617.00
2023-05-10T17:18:57.584Z,100625.00
2023-05-10T17:21:24.686Z,100627.00
2023-05-10T17:23:51.685Z,100628.00
2023-05-10T17:26:18.697Z,100637.00
2023-05-10T17:28:47.638Z,100633.00
2023-05-10T17:31:14.597Z,100625.00
2023-05-10T17:33:41.582Z,100629.00
2023-05-10T17:36:08.703Z,100631.00
2023-05-10T17:38:36.764Z,100634.00
2023-05-10T17:41:03.832Z,100632.00
2023-05-10T17:43:30.706Z,100640.00
2023-05-10T17:45:57.708Z,100633.00
2023-05-10T17:48:24.594Z,100638.00
2023-05-10T17:50:51.976Z,100644.00
2023-05-10T17:53:19.440Z,100641.00
2023-05-10T17:55:47.006Z,100644.00
2023-05-10T17:58:13.968Z,100647.00
2023-05-10T18:00:40.927Z,100644.00
2023-05-10T18:03:08.160Z,100646.00
2023-05-10T18:05:39.329Z,100650.00
2023-05-10T18:08:07.302Z,100653.00
2023-05-10T18:10:34.459Z,100656.00
2023-05-10T18:13:02.600Z,100656.00
2023-05-10T18:15:29.660Z,100656.00
2023-05-10T18:17:56.849Z,100664.00
2023-05-10T18:20:24.209Z,100659.00
2023-05-10T18:22:51.067Z,100665.00
2023-05-10T18:25:18.450Z,100664.00
2023-05-10T18:27:45.690Z,100670.00
2023-05-10T18:30:13.949Z,100667.00
2023-05-10T18:32:40.989Z,100661.00
2023-05-10T18:35:09.694Z,100682.00
2023-05-10T18:37:41.048Z,100675.00
2023-05-10T18:40:14.637Z,100674.00
2023-05-10T18:42:46.634Z,100682.00
2023-05-10T18:45:14.021Z,100684.00
2023-05-10T18:47:40.938Z,100688.00
2023-05-10T18:50:10.263Z,100684.00
2023-05-10T18:52:37.315Z,100686.00
2023-05-10T18:55:04.822Z,100684.00
2023-05-10T18:57:31.881Z,100695.00
2023-05-10T18:59:58.763Z,100689.00
2023-05-10T19:02:26.720Z,100692.00
2023-05-10T19:04:53.786Z,100691.00
2023-05-10T19:07:20.913Z,100692.00
2023-05-10T19:09:47.802Z,100700.00
2023-05-10T19:12:14.734Z,100693.00
2023-05-10T19:14:41.628Z,100696.00
2023-05-10T19:17:08.497Z,100691.00
2023-05-10T19:19:38.747Z,100698.00
2023-05-10T19:22:05.661Z,100700.00
2023-05-10T19:24:34.398Z,100692.00
2023-05-10T19:27:02.361Z,100705.00
2023-05-10T19:29:29.433Z,100701.00
2023-05-10T19:31:56.342Z,100707.00
2023-05-10T19:34:23.655Z,100711.00
2023-05-10T19:36:50.641Z,100707.00
2023-05-10T19:39:17.498Z,100711.00
2023-05-10T19:41:44.437Z,100709.00
2023-05-10T19:44:11.294Z,100721.00
2023-05-10T19:46:38.175Z,100729.00
2023-05-10T19:49:05.094Z,100721.00
2023-05-10T19:51:31.984Z,100717.00
2023-05-10T19:53:59.145Z,100730.00
2023-05-10T19:56:26.976Z,100727.00
2023-05-10T19:58:53.855Z,100727.00
2023-05-10T20:01:20.962Z,100726.00
2023-05-10T20:03:47.977Z,100737.00
2023-05-10T20:06:14.852Z,100734.00
2023-05-10T20:08:41.764Z,100738.00
2023-05-10T20:11:09.912Z,100746.00
2023-05-10T20:13:36.778Z,100741.00
2023-05-10T20:16:07.045Z,100734.00
2023-05-10T20:18:33.961Z,100739.00
2023-05-10T20:21:01.350Z,100702.00
2023-05-10T20:23:28.235Z,100737.00
2023-05-10T20:25:55.277Z,100712.00
2023-05-10T20:28:25.160Z,100731.00
2023-05-10T20:30:55.440Z,100730.00
2023-05-10T20:33:22.991Z,100743.00
2023-05-10T20:35:51.282Z,100728.00
2023-05-10T20:38:18.310Z,100725.00
2023-05-10T20:40:45.601Z,100731.00
2023-05-10T20:43:12.702Z,100746.00
2023-05-10T20:45:39.629Z,100736.00
2023-05-10T20:48:07.627Z,100742.00
2023-05-10T20:50:34.571Z,100737.00
2023-05-10T20:53:01.589Z,100741.00
2023-05-10T20:55:28.676Z,100740.00
2023-05-10T20:57:55.742Z,100747.00
2023-05-10T21:00:22.700Z,100750.00
2023-05-10T21:02:49.767Z,100753.00
2023-05-10T21:05:18.723Z,100751.00
2023-05-10T21:07:45.815Z,100755.00
2023-05-10T21:10:12.810Z,100761.00
2023-05-10T21:12:39.649Z,100753.00
2023-05-10T21:15:07.526Z,100753.00
2023-05-10T21:17:34.353Z,100760.00
2023-05-10T21:20:01.224Z,100756.00
2023-05-10T21:22:28.112Z,100762.00
2023-05-10T21:24:55.008Z,100765.00
2023-05-10T21:27:22.035Z,100764.00
2023-05-10T21:29:50.753Z,100765.00
2023-05-10T21:32:17.600Z,100768.00
2023-05-10T21:34:44.510Z,100773.00
2023-05-10T21:37:11.335Z,100770.00
2023-05-10T21:39:38.251Z,100765.00
2023-05-10T21:42:05.140Z,100768.00
2023-05-10T21:44:32.180Z,100768.00
2023-05-10T21:46:59.091Z,100769.00
2023-05-10T21:49:26.585Z,100775.00
2023-05-10T21:51:53.547Z,100782.00
2023-05-10T21:54:20.462Z,100770.00
2023-05-10T21:56:47.350Z,100764.00
2023-05-10T21:59:14.358Z,100776.00
2023-05-10T22:01:41.876Z,100769.00
2023-05-10T22:04:08.819Z,100774.00
2023-05-10T22:06:36.062Z,100776.00
2023-05-10T22:09:03.029Z,100780.00
2023-05-10T22:11:30.101Z,100776.00
2023-05-10T22:13:56.923Z,100785.00
2023-05-10T22:16:24.892Z,100785.00
2023-05-10T22:18:54.067Z,100782.00
2023-05-10T22:21:21.389Z,100776.00
2023-05-10T22:23:48.288Z,100776.00
2023-05-10T22:26:17.775Z,100786.00
2023-05-10T22:28:44.605Z,100784.00
2023-05-10T22:31:13.023Z,100784.00
2023-05-10T22:33:40.204Z,100782.00
2023-05-10T22:36:07.384Z,100783.00
2023-05-10T22:38:34.253Z,100787.00
2023-05-10T22:41:01.384Z,100792.00
2023-05-10T22:43:28.195Z,100784.00
2023-05-10T22:45:55.006Z,100798.00
2023-05-10T22:48:22.024Z,100799.00
2023-05-10T22:50:48.905Z,100804.00
2023-05-10T22:53:16.306Z,100789.00
2023-05-10T22:55:43.274Z,100783.00
2023-05-10T22:58:10.473Z,100795.00
2023-05-10T23:00:38.288Z,100791.00
2023-05-10T23:03:06.749Z,100792.00
2023-05-10T23:05:33.658Z,100798.00
2023-05-10T23:08:00.641Z,100792.00
2023-05-10T23:10:27.622Z,100797.00
2023-05-10T23:12:55.740Z,100797.00
2023-05-10T23:15:22.763Z,100802.00
2023-05-10T23:17:51.725Z,100783.00
2023-05-10T23:20:18.853Z,100795.00
2023-05-10T23:22:46.198Z,100798.00
2023-05-10T23:25:13.166Z,100794.00
2023-05-10T23:27:40.075Z,100797.00
2023-05-10T23:30:07.950Z,100800.00
2023-05-10T23:32:34.782Z,100791.00
2023-05-10T23:35:01.750Z,100793.00
2023-05-10T23:37:28.675Z,100800.00
2023-05-10T23:39:55.745Z,100798.00
2023-05-10T23:42:22.783Z,100797.00
2023-05-10T23:44:52.314Z,100805.00
2023-05-10T23:47:19.184Z,100798.00
2023-05-10T23:49:46.096Z,100799.00
2023-05-10T23:52:12.963Z,100797.00
2023-05-10T23:54:39.771Z,100796.00
2023-05-10T23:57:06.567Z,100799.00
2023-05-10T23:59:33.417Z,100797.00
